Harts Store, North Carolina
Current Conditions -  °F | °C
As of 3:35 PM on Thursday 20 Nov 2014 (Local Time) from KMTV Reporting Station
Clear Clear  
Wind Chill: 55°   Ceiling: Unl
Heat Index: 55°   Visibility: 10mi
Dew Point: 21°   Wind: 9mph
Humidity: 26%   Direction: 280°W
Pressure: 30.02"   Gusts: 18mph
Location:  36.5142°N, 80.215°W
Report Text: KMTV 202035Z AUTO 28008G16KT 10SM CLR 13/M06 A3002 RMK AO2 T01291061
Loading
Personal Weather Stations






























Interactive Weather Map New forecast layout! Learn more

10-Day Weather Forecast

Advertisements
Track Severe Weather on mobile